sensor_id;sensor_type;location;lat;lon;timestamp;P1;durP1;ratioP1;P2;durP2;ratioP2
2011;SDS011;1009;51.436;6.972;2023-07-13T00:00:04;1.90;;;1.20;;
2011;SDS011;1009;51.436;6.972;2023-07-13T00:02:34;1.27;;;0.90;;
2011;SDS011;1009;51.436;6.972;2023-07-13T00:05:01;4.07;;;1.30;;
2011;SDS011;1009;51.436;6.972;2023-07-13T00:07:28;3.73;;;1.37;;
2011;SDS011;1009;51.436;6.972;2023-07-13T00:09:56;1.47;;;1.37;;
2011;SDS011;1009;51.436;6.972;2023-07-13T00:12:26;2.73;;;1.17;;
2011;SDS011;1009;51.436;6.972;2023-07-13T00:14:55;1.63;;;0.90;;
2011;SDS011;1009;51.436;6.972;2023-07-13T00:17:22;2.53;;;1.40;;
2011;SDS011;1009;51.436;6.972;2023-07-13T00:19:49;2.20;;;1.20;;
2011;SDS011;1009;51.436;6.972;2023-07-13T00:22:16;2.70;;;1.20;;
2011;SDS011;1009;51.436;6.972;2023-07-13T00:24:43;3.00;;;1.37;;
2011;SDS011;1009;51.436;6.972;2023-07-13T00:27:10;5.93;;;1.10;;
2011;SDS011;1009;51.436;6.972;2023-07-13T00:29:39;3.87;;;1.27;;
2011;SDS011;1009;51.436;6.972;2023-07-13T00:32:07;1.90;;;1.10;;
2011;SDS011;1009;51.436;6.972;2023-07-13T00:34:36;5.60;;;1.70;;
2011;SDS011;1009;51.436;6.972;2023-07-13T00:37:03;2.27;;;1.40;;
2011;SDS011;1009;51.436;6.972;2023-07-13T00:39:31;3.17;;;1.27;;
2011;SDS011;1009;51.436;6.972;2023-07-13T00:41:58;4.87;;;1.40;;
2011;SDS011;1009;51.436;6.972;2023-07-13T00:44:25;2.00;;;1.03;;
2011;SDS011;1009;51.436;6.972;2023-07-13T00:46:54;7.40;;;1.77;;
2011;SDS011;1009;51.436;6.972;2023-07-13T00:49:23;8.63;;;1.40;;
2011;SDS011;1009;51.436;6.972;2023-07-13T00:51:53;1.87;;;1.00;;
2011;SDS011;1009;51.436;6.972;2023-07-13T00:54:24;3.10;;;0.90;;
2011;SDS011;1009;51.436;6.972;2023-07-13T00:56:54;1.80;;;1.10;;
2011;SDS011;1009;51.436;6.972;2023-07-13T00:59:25;3.30;;;2.20;;
2011;SDS011;1009;51.436;6.972;2023-07-13T01:01:54;2.63;;;1.10;;
2011;SDS011;1009;51.436;6.972;2023-07-13T01:04:20;3.07;;;1.20;;
2011;SDS011;1009;51.436;6.972;2023-07-13T01:06:50;5.70;;;1.10;;
2011;SDS011;1009;51.436;6.972;2023-07-13T01:09:17;3.97;;;1.30;;
2011;SDS011;1009;51.436;6.972;2023-07-13T01:11:45;1.63;;;1.07;;
2011;SDS011;1009;51.436;6.972;2023-07-13T01:14:13;2.40;;;0.90;;
2011;SDS011;1009;51.436;6.972;2023-07-13T01:16:40;1.70;;;1.03;;
2011;SDS011;1009;51.436;6.972;2023-07-13T01:19:12;2.53;;;0.90;;
2011;SDS011;1009;51.436;6.972;2023-07-13T01:21:51;2.40;;;1.13;;
2011;SDS011;1009;51.436;6.972;2023-07-13T01:24:19;1.10;;;0.80;;
2011;SDS011;1009;51.436;6.972;2023-07-13T01:26:46;2.10;;;1.00;;
2011;SDS011;1009;51.436;6.972;2023-07-13T01:29:12;2.70;;;1.43;;
2011;SDS011;1009;51.436;6.972;2023-07-13T01:31:39;1.80;;;1.10;;
2011;SDS011;1009;51.436;6.972;2023-07-13T01:34:06;1.57;;;0.90;;
2011;SDS011;1009;51.436;6.972;2023-07-13T01:36:33;6.67;;;1.40;;
2011;SDS011;1009;51.436;6.972;2023-07-13T01:39:02;4.90;;;1.20;;
2011;SDS011;1009;51.436;6.972;2023-07-13T01:41:29;4.97;;;2.27;;
2011;SDS011;1009;51.436;6.972;2023-07-13T01:43:56;2.23;;;1.30;;
2011;SDS011;1009;51.436;6.972;2023-07-13T01:46:22;2.40;;;0.90;;
2011;SDS011;1009;51.436;6.972;2023-07-13T01:48:49;3.27;;;0.70;;
2011;SDS011;1009;51.436;6.972;2023-07-13T01:51:17;3.30;;;1.00;;
2011;SDS011;1009;51.436;6.972;2023-07-13T01:53:44;1.70;;;0.87;;
2011;SDS011;1009;51.436;6.972;2023-07-13T01:56:12;2.30;;;1.10;;
2011;SDS011;1009;51.436;6.972;2023-07-13T01:58:39;1.50;;;1.00;;
2011;SDS011;1009;51.436;6.972;2023-07-13T02:01:06;1.87;;;1.00;;
2011;SDS011;1009;51.436;6.972;2023-07-13T02:03:33;2.40;;;0.90;;
2011;SDS011;1009;51.436;6.972;2023-07-13T02:05:59;2.10;;;1.17;;
2011;SDS011;1009;51.436;6.972;2023-07-13T02:08:26;3.23;;;1.10;;
2011;SDS011;1009;51.436;6.972;2023-07-13T02:10:53;3.50;;;1.20;;
2011;SDS011;1009;51.436;6.972;2023-07-13T02:13:21;1.03;;;0.83;;
2011;SDS011;1009;51.436;6.972;2023-07-13T02:15:49;5.57;;;1.97;;
2011;SDS011;1009;51.436;6.972;2023-07-13T02:18:16;1.87;;;1.00;;
2011;SDS011;1009;51.436;6.972;2023-07-13T02:20:43;2.13;;;0.83;;
2011;SDS011;1009;51.436;6.972;2023-07-13T02:23:10;2.10;;;1.00;;
2011;SDS011;1009;51.436;6.972;2023-07-13T02:25:37;2.43;;;0.80;;
2011;SDS011;1009;51.436;6.972;2023-07-13T02:28:04;6.13;;;1.10;;
2011;SDS011;1009;51.436;6.972;2023-07-13T02:30:33;2.30;;;0.80;;
2011;SDS011;1009;51.436;6.972;2023-07-13T02:33:00;1.37;;;0.90;;
2011;SDS011;1009;51.436;6.972;2023-07-13T02:35:27;1.50;;;0.90;;
2011;SDS011;1009;51.436;6.972;2023-07-13T02:37:54;2.87;;;1.00;;
2011;SDS011;1009;51.436;6.972;2023-07-13T02:40:21;3.57;;;0.73;;
2011;SDS011;1009;51.436;6.972;2023-07-13T02:42:48;3.17;;;1.23;;
2011;SDS011;1009;51.436;6.972;2023-07-13T02:45:15;2.63;;;1.20;;
2011;SDS011;1009;51.436;6.972;2023-07-13T02:47:43;2.03;;;0.80;;
2011;SDS011;1009;51.436;6.972;2023-07-13T02:50:09;1.80;;;1.30;;
2011;SDS011;1009;51.436;6.972;2023-07-13T02:52:36;4.07;;;1.10;;
2011;SDS011;1009;51.436;6.972;2023-07-13T02:55:03;4.70;;;0.90;;
2011;SDS011;1009;51.436;6.972;2023-07-13T02:57:30;2.33;;;0.83;;
2011;SDS011;1009;51.436;6.972;2023-07-13T02:59:57;3.47;;;0.93;;
2011;SDS011;1009;51.436;6.972;2023-07-13T03:02:24;1.83;;;1.00;;
2011;SDS011;1009;51.436;6.972;2023-07-13T03:04:54;2.77;;;1.07;;
2011;SDS011;1009;51.436;6.972;2023-07-13T03:07:21;4.73;;;2.20;;
2011;SDS011;1009;51.436;6.972;2023-07-13T03:09:48;2.87;;;1.53;;
2011;SDS011;1009;51.436;6.972;2023-07-13T03:12:15;4.17;;;0.90;;
2011;SDS011;1009;51.436;6.972;2023-07-13T03:14:41;1.90;;;1.03;;
2011;SDS011;1009;51.436;6.972;2023-07-13T03:17:08;3.33;;;0.93;;
2011;SDS011;1009;51.436;6.972;2023-07-13T03:19:35;1.73;;;0.90;;
2011;SDS011;1009;51.436;6.972;2023-07-13T03:22:03;2.00;;;0.87;;
2011;SDS011;1009;51.436;6.972;2023-07-13T03:24:32;2.20;;;1.10;;
2011;SDS011;1009;51.436;6.972;2023-07-13T03:27:00;2.90;;;0.93;;
2011;SDS011;1009;51.436;6.972;2023-07-13T03:29:27;7.83;;;1.20;;
2011;SDS011;1009;51.436;6.972;2023-07-13T03:31:54;2.63;;;0.83;;
2011;SDS011;1009;51.436;6.972;2023-07-13T03:34:21;4.63;;;1.33;;
2011;SDS011;1009;51.436;6.972;2023-07-13T03:36:48;3.57;;;1.03;;
2011;SDS011;1009;51.436;6.972;2023-07-13T03:39:16;2.37;;;1.30;;
2011;SDS011;1009;51.436;6.972;2023-07-13T03:41:42;2.90;;;1.63;;
2011;SDS011;1009;51.436;6.972;2023-07-13T03:44:09;2.47;;;1.80;;
2011;SDS011;1009;51.436;6.972;2023-07-13T03:46:36;5.90;;;2.30;;
2011;SDS011;1009;51.436;6.972;2023-07-13T03:49:03;3.73;;;1.30;;
2011;SDS011;1009;51.436;6.972;2023-07-13T03:51:31;2.13;;;1.20;;
2011;SDS011;1009;51.436;6.972;2023-07-13T03:53:58;2.10;;;0.90;;
2011;SDS011;1009;51.436;6.972;2023-07-13T03:56:26;3.10;;;1.37;;
2011;SDS011;1009;51.436;6.972;2023-07-13T03:58:53;3.90;;;1.30;;
2011;SDS011;1009;51.436;6.972;2023-07-13T04:01:20;5.70;;;1.13;;
2011;SDS011;1009;51.436;6.972;2023-07-13T04:03:48;1.87;;;1.00;;
2011;SDS011;1009;51.436;6.972;2023-07-13T04:06:16;1.93;;;1.13;;
2011;SDS011;1009;51.436;6.972;2023-07-13T04:08:46;2.47;;;1.10;;
2011;SDS011;1009;51.436;6.972;2023-07-13T04:11:15;2.77;;;0.83;;
2011;SDS011;1009;51.436;6.972;2023-07-13T04:13:43;1.77;;;0.90;;
2011;SDS011;1009;51.436;6.972;2023-07-13T04:16:10;1.93;;;0.87;;
2011;SDS011;1009;51.436;6.972;2023-07-13T04:18:38;3.00;;;1.33;;
2011;SDS011;1009;51.436;6.972;2023-07-13T04:21:04;2.20;;;0.93;;
2011;SDS011;1009;51.436;6.972;2023-07-13T04:23:31;3.47;;;1.00;;
2011;SDS011;1009;51.436;6.972;2023-07-13T04:25:58;4.87;;;1.50;;
2011;SDS011;1009;51.436;6.972;2023-07-13T04:28:25;7.50;;;1.57;;
2011;SDS011;1009;51.436;6.972;2023-07-13T04:30:53;2.70;;;1.13;;
2011;SDS011;1009;51.436;6.972;2023-07-13T04:33:20;7.03;;;1.43;;
2011;SDS011;1009;51.436;6.972;2023-07-13T04:35:48;4.03;;;1.30;;
2011;SDS011;1009;51.436;6.972;2023-07-13T04:38:19;3.60;;;0.90;;
2011;SDS011;1009;51.436;6.972;2023-07-13T04:40:47;2.03;;;1.30;;
2011;SDS011;1009;51.436;6.972;2023-07-13T04:43:14;1.93;;;1.40;;
2011;SDS011;1009;51.436;6.972;2023-07-13T04:45:41;9.13;;;1.37;;
2011;SDS011;1009;51.436;6.972;2023-07-13T04:48:09;3.57;;;1.17;;
2011;SDS011;1009;51.436;6.972;2023-07-13T04:50:36;6.03;;;1.50;;
2011;SDS011;1009;51.436;6.972;2023-07-13T04:53:03;3.00;;;1.20;;
2011;SDS011;1009;51.436;6.972;2023-07-13T04:55:31;4.00;;;1.37;;
2011;SDS011;1009;51.436;6.972;2023-07-13T04:57:58;2.23;;;1.03;;
2011;SDS011;1009;51.436;6.972;2023-07-13T05:00:24;3.10;;;1.40;;
2011;SDS011;1009;51.436;6.972;2023-07-13T05:02:53;2.43;;;2.10;;
2011;SDS011;1009;51.436;6.972;2023-07-13T05:05:22;3.10;;;1.20;;
2011;SDS011;1009;51.436;6.972;2023-07-13T05:07:49;1.40;;;0.90;;
2011;SDS011;1009;51.436;6.972;2023-07-13T05:10:16;3.97;;;1.23;;
2011;SDS011;1009;51.436;6.972;2023-07-13T05:12:42;3.70;;;1.47;;
2011;SDS011;1009;51.436;6.972;2023-07-13T05:15:09;1.20;;;1.10;;
2011;SDS011;1009;51.436;6.972;2023-07-13T05:17:37;2.57;;;1.60;;
2011;SDS011;1009;51.436;6.972;2023-07-13T05:20:05;3.27;;;0.93;;
2011;SDS011;1009;51.436;6.972;2023-07-13T05:22:34;4.30;;;1.57;;
2011;SDS011;1009;51.436;6.972;2023-07-13T05:25:01;8.77;;;1.90;;
2011;SDS011;1009;51.436;6.972;2023-07-13T05:27:30;12.10;;;1.87;;
2011;SDS011;1009;51.436;6.972;2023-07-13T05:29:57;4.43;;;1.53;;
2011;SDS011;1009;51.436;6.972;2023-07-13T05:32:24;5.33;;;2.03;;
2011;SDS011;1009;51.436;6.972;2023-07-13T05:34:51;2.10;;;1.20;;
2011;SDS011;1009;51.436;6.972;2023-07-13T05:37:17;5.00;;;1.30;;
2011;SDS011;1009;51.436;6.972;2023-07-13T05:39:46;6.80;;;1.20;;
2011;SDS011;1009;51.436;6.972;2023-07-13T05:42:12;3.50;;;1.40;;
2011;SDS011;1009;51.436;6.972;2023-07-13T05:44:39;4.83;;;1.77;;
2011;SDS011;1009;51.436;6.972;2023-07-13T05:47:06;2.57;;;1.47;;
2011;SDS011;1009;51.436;6.972;2023-07-13T05:49:33;3.13;;;1.27;;
2011;SDS011;1009;51.436;6.972;2023-07-13T05:52:00;4.27;;;1.40;;
2011;SDS011;1009;51.436;6.972;2023-07-13T05:54:26;3.20;;;1.60;;
2011;SDS011;1009;51.436;6.972;2023-07-13T05:56:55;3.80;;;1.63;;
2011;SDS011;1009;51.436;6.972;2023-07-13T05:59:21;5.37;;;1.30;;
2011;SDS011;1009;51.436;6.972;2023-07-13T06:01:48;4.93;;;2.00;;
2011;SDS011;1009;51.436;6.972;2023-07-13T06:04:17;4.00;;;1.73;;
2011;SDS011;1009;51.436;6.972;2023-07-13T06:06:44;6.93;;;2.20;;
2011;SDS011;1009;51.436;6.972;2023-07-13T06:09:10;4.77;;;1.17;;
2011;SDS011;1009;51.436;6.972;2023-07-13T06:11:37;2.90;;;1.40;;
2011;SDS011;1009;51.436;6.972;2023-07-13T06:14:05;3.57;;;1.70;;
2011;SDS011;1009;51.436;6.972;2023-07-13T06:16:32;2.07;;;1.50;;
2011;SDS011;1009;51.436;6.972;2023-07-13T06:18:59;2.60;;;1.73;;
2011;SDS011;1009;51.436;6.972;2023-07-13T06:21:25;1.50;;;0.90;;
2011;SDS011;1009;51.436;6.972;2023-07-13T06:23:52;3.83;;;1.40;;
2011;SDS011;1009;51.436;6.972;2023-07-13T06:26:20;2.57;;;1.57;;
2011;SDS011;1009;51.436;6.972;2023-07-13T06:28:47;6.67;;;1.77;;
2011;SDS011;1009;51.436;6.972;2023-07-13T06:31:15;4.60;;;2.07;;
2011;SDS011;1009;51.436;6.972;2023-07-13T06:33:42;5.07;;;1.87;;
2011;SDS011;1009;51.436;6.972;2023-07-13T06:36:09;6.57;;;1.73;;
2011;SDS011;1009;51.436;6.972;2023-07-13T06:38:37;4.50;;;1.90;;
2011;SDS011;1009;51.436;6.972;2023-07-13T06:41:04;6.87;;;2.07;;
2011;SDS011;1009;51.436;6.972;2023-07-13T06:43:32;2.87;;;1.73;;
2011;SDS011;1009;51.436;6.972;2023-07-13T06:45:59;3.33;;;1.77;;
2011;SDS011;1009;51.436;6.972;2023-07-13T06:48:27;5.40;;;1.70;;
2011;SDS011;1009;51.436;6.972;2023-07-13T06:50:54;11.70;;;1.90;;
2011;SDS011;1009;51.436;6.972;2023-07-13T06:53:22;2.40;;;1.67;;
2011;SDS011;1009;51.436;6.972;2023-07-13T06:55:49;10.20;;;2.30;;
2011;SDS011;1009;51.436;6.972;2023-07-13T06:58:17;2.50;;;1.37;;
2011;SDS011;1009;51.436;6.972;2023-07-13T07:00:44;5.90;;;1.90;;
2011;SDS011;1009;51.436;6.972;2023-07-13T07:03:11;10.00;;;2.77;;
2011;SDS011;1009;51.436;6.972;2023-07-13T07:05:40;5.40;;;2.27;;
2011;SDS011;1009;51.436;6.972;2023-07-13T07:08:06;5.27;;;1.80;;
2011;SDS011;1009;51.436;6.972;2023-07-13T07:10:34;4.37;;;1.43;;
2011;SDS011;1009;51.436;6.972;2023-07-13T07:13:01;3.50;;;2.00;;
2011;SDS011;1009;51.436;6.972;2023-07-13T07:15:29;4.77;;;2.07;;
2011;SDS011;1009;51.436;6.972;2023-07-13T07:17:56;4.37;;;2.10;;
2011;SDS011;1009;51.436;6.972;2023-07-13T07:20:22;2.83;;;2.37;;
2011;SDS011;1009;51.436;6.972;2023-07-13T07:22:50;5.83;;;2.30;;
2011;SDS011;1009;51.436;6.972;2023-07-13T07:25:17;4.23;;;2.07;;
2011;SDS011;1009;51.436;6.972;2023-07-13T07:27:45;7.20;;;2.13;;
2011;SDS011;1009;51.436;6.972;2023-07-13T07:30:12;3.97;;;2.80;;
2011;SDS011;1009;51.436;6.972;2023-07-13T07:32:40;5.27;;;2.40;;
2011;SDS011;1009;51.436;6.972;2023-07-13T07:35:11;3.37;;;1.70;;
2011;SDS011;1009;51.436;6.972;2023-07-13T07:37:38;6.47;;;2.60;;
2011;SDS011;1009;51.436;6.972;2023-07-13T07:40:07;5.27;;;2.27;;
2011;SDS011;1009;51.436;6.972;2023-07-13T07:42:34;2.97;;;2.30;;
2011;SDS011;1009;51.436;6.972;2023-07-13T07:45:01;3.57;;;2.23;;
2011;SDS011;1009;51.436;6.972;2023-07-13T07:47:28;4.33;;;2.70;;
2011;SDS011;1009;51.436;6.972;2023-07-13T07:49:55;7.30;;;3.47;;
2011;SDS011;1009;51.436;6.972;2023-07-13T07:52:21;4.63;;;2.30;;
2011;SDS011;1009;51.436;6.972;2023-07-13T07:54:48;3.00;;;2.70;;
2011;SDS011;1009;51.436;6.972;2023-07-13T07:57:16;4.83;;;2.80;;
2011;SDS011;1009;51.436;6.972;2023-07-13T07:59:43;7.50;;;2.23;;
2011;SDS011;1009;51.436;6.972;2023-07-13T08:02:12;5.17;;;2.77;;
2011;SDS011;1009;51.436;6.972;2023-07-13T08:04:39;4.90;;;2.30;;
2011;SDS011;1009;51.436;6.972;2023-07-13T08:07:07;6.00;;;2.70;;
2011;SDS011;1009;51.436;6.972;2023-07-13T08:09:34;4.40;;;2.83;;
2011;SDS011;1009;51.436;6.972;2023-07-13T08:12:01;5.40;;;2.57;;
2011;SDS011;1009;51.436;6.972;2023-07-13T08:14:30;5.13;;;2.77;;
2011;SDS011;1009;51.436;6.972;2023-07-13T08:16:57;3.03;;;2.23;;
2011;SDS011;1009;51.436;6.972;2023-07-13T08:19:24;3.53;;;2.10;;
2011;SDS011;1009;51.436;6.972;2023-07-13T08:21:51;5.80;;;2.60;;
2011;SDS011;1009;51.436;6.972;2023-07-13T08:24:21;3.20;;;2.90;;
2011;SDS011;1009;51.436;6.972;2023-07-13T08:26:48;2.87;;;2.20;;
2011;SDS011;1009;51.436;6.972;2023-07-13T08:29:15;6.47;;;2.63;;
2011;SDS011;1009;51.436;6.972;2023-07-13T08:31:43;5.60;;;2.77;;
2011;SDS011;1009;51.436;6.972;2023-07-13T08:34:10;7.33;;;2.40;;
2011;SDS011;1009;51.436;6.972;2023-07-13T08:36:36;5.93;;;2.40;;
2011;SDS011;1009;51.436;6.972;2023-07-13T08:39:04;4.03;;;2.13;;
2011;SDS011;1009;51.436;6.972;2023-07-13T08:41:31;4.77;;;2.60;;
2011;SDS011;1009;51.436;6.972;2023-07-13T08:43:59;3.23;;;2.50;;
2011;SDS011;1009;51.436;6.972;2023-07-13T08:46:29;3.80;;;2.63;;
2011;SDS011;1009;51.436;6.972;2023-07-13T08:49:03;6.17;;;2.60;;
2011;SDS011;1009;51.436;6.972;2023-07-13T08:51:34;4.23;;;2.10;;
2011;SDS011;1009;51.436;6.972;2023-07-13T08:54:15;5.03;;;2.40;;
2011;SDS011;1009;51.436;6.972;2023-07-13T08:56:46;3.60;;;2.20;;
2011;SDS011;1009;51.436;6.972;2023-07-13T08:59:15;5.30;;;2.10;;
2011;SDS011;1009;51.436;6.972;2023-07-13T09:04:37;4.07;;;2.07;;
2011;SDS011;1009;51.436;6.972;2023-07-13T09:07:17;6.70;;;3.10;;
2011;SDS011;1009;51.436;6.972;2023-07-13T09:09:55;3.93;;;2.00;;
2011;SDS011;1009;51.436;6.972;2023-07-13T09:12:32;4.80;;;3.03;;
2011;SDS011;1009;51.436;6.972;2023-07-13T09:15:04;3.47;;;2.17;;
2011;SDS011;1009;51.436;6.972;2023-07-13T09:17:40;4.33;;;2.37;;
2011;SDS011;1009;51.436;6.972;2023-07-13T09:20:16;2.20;;;1.90;;
2011;SDS011;1009;51.436;6.972;2023-07-13T09:22:48;3.63;;;2.10;;
2011;SDS011;1009;51.436;6.972;2023-07-13T09:25:21;4.20;;;2.40;;
2011;SDS011;1009;51.436;6.972;2023-07-13T09:27:52;5.47;;;2.70;;
2011;SDS011;1009;51.436;6.972;2023-07-13T09:30:24;4.60;;;2.00;;
2011;SDS011;1009;51.436;6.972;2023-07-13T09:32:57;3.87;;;2.37;;
2011;SDS011;1009;51.436;6.972;2023-07-13T09:35:26;3.33;;;2.13;;
2011;SDS011;1009;51.436;6.972;2023-07-13T09:37:57;2.90;;;2.10;;
2011;SDS011;1009;51.436;6.972;2023-07-13T09:40:28;3.73;;;2.33;;
2011;SDS011;1009;51.436;6.972;2023-07-13T09:43:02;4.00;;;2.27;;
2011;SDS011;1009;51.436;6.972;2023-07-13T09:45:32;3.90;;;2.50;;
2011;SDS011;1009;51.436;6.972;2023-07-13T09:48:03;4.40;;;2.20;;
2011;SDS011;1009;51.436;6.972;2023-07-13T09:50:34;5.87;;;2.50;;
2011;SDS011;1009;51.436;6.972;2023-07-13T09:53:02;3.73;;;2.10;;
2011;SDS011;1009;51.436;6.972;2023-07-13T09:55:30;4.07;;;2.00;;
2011;SDS011;1009;51.436;6.972;2023-07-13T09:58:02;3.50;;;2.37;;
2011;SDS011;1009;51.436;6.972;2023-07-13T10:00:31;2.63;;;2.03;;
2011;SDS011;1009;51.436;6.972;2023-07-13T10:02:59;4.67;;;2.70;;
2011;SDS011;1009;51.436;6.972;2023-07-13T10:05:28;3.53;;;2.63;;
2011;SDS011;1009;51.436;6.972;2023-07-13T10:08:09;3.97;;;2.13;;
2011;SDS011;1009;51.436;6.972;2023-07-13T10:10:43;3.80;;;2.03;;
2011;SDS011;1009;51.436;6.972;2023-07-13T10:13:21;5.63;;;2.47;;
2011;SDS011;1009;51.436;6.972;2023-07-13T10:15:56;4.67;;;2.20;;
2011;SDS011;1009;51.436;6.972;2023-07-13T10:18:25;4.07;;;2.17;;
2011;SDS011;1009;51.436;6.972;2023-07-13T10:20:55;3.13;;;2.07;;
2011;SDS011;1009;51.436;6.972;2023-07-13T10:23:35;4.00;;;2.20;;
2011;SDS011;1009;51.436;6.972;2023-07-13T10:26:02;5.13;;;2.50;;
2011;SDS011;1009;51.436;6.972;2023-07-13T10:28:35;5.50;;;2.23;;
2011;SDS011;1009;51.436;6.972;2023-07-13T10:31:04;3.20;;;2.00;;
2011;SDS011;1009;51.436;6.972;2023-07-13T10:33:37;4.73;;;2.37;;
2011;SDS011;1009;51.436;6.972;2023-07-13T10:36:17;4.77;;;2.00;;
2011;SDS011;1009;51.436;6.972;2023-07-13T10:38:53;4.10;;;2.00;;
2011;SDS011;1009;51.436;6.972;2023-07-13T10:41:23;2.40;;;2.03;;
2011;SDS011;1009;51.436;6.972;2023-07-13T10:43:52;3.73;;;2.63;;
2011;SDS011;1009;51.436;6.972;2023-07-13T10:46:22;9.20;;;2.33;;
2011;SDS011;1009;51.436;6.972;2023-07-13T10:48:53;4.37;;;2.03;;
2011;SDS011;1009;51.436;6.972;2023-07-13T10:51:24;3.60;;;1.60;;
2011;SDS011;1009;51.436;6.972;2023-07-13T10:54:10;6.10;;;2.30;;
2011;SDS011;1009;51.436;6.972;2023-07-13T10:56:44;3.17;;;1.90;;
2011;SDS011;1009;51.436;6.972;2023-07-13T10:59:13;3.87;;;1.90;;
2011;SDS011;1009;51.436;6.972;2023-07-13T11:01:48;7.03;;;2.30;;
2011;SDS011;1009;51.436;6.972;2023-07-13T11:04:19;5.33;;;2.27;;
2011;SDS011;1009;51.436;6.972;2023-07-13T11:06:49;3.27;;;1.80;;
2011;SDS011;1009;51.436;6.972;2023-07-13T11:12:06;2.60;;;1.90;;
2011;SDS011;1009;51.436;6.972;2023-07-13T11:14:42;3.90;;;1.80;;
2011;SDS011;1009;51.436;6.972;2023-07-13T11:20:19;3.03;;;2.10;;
2011;SDS011;1009;51.436;6.972;2023-07-13T11:23:08;3.13;;;1.73;;
2011;SDS011;1009;51.436;6.972;2023-07-13T11:25:44;3.13;;;2.17;;
2011;SDS011;1009;51.436;6.972;2023-07-13T11:28:21;2.30;;;1.90;;
2011;SDS011;1009;51.436;6.972;2023-07-13T11:30:53;4.30;;;2.23;;
2011;SDS011;1009;51.436;6.972;2023-07-13T11:33:28;3.00;;;1.80;;
2011;SDS011;1009;51.436;6.972;2023-07-13T11:36:12;1.77;;;1.60;;
2011;SDS011;1009;51.436;6.972;2023-07-13T11:38:42;2.80;;;1.63;;
2011;SDS011;1009;51.436;6.972;2023-07-13T11:41:14;2.90;;;1.80;;
2011;SDS011;1009;51.436;6.972;2023-07-13T11:43:43;4.53;;;2.07;;
2011;SDS011;1009;51.436;6.972;2023-07-13T11:46:13;3.30;;;1.77;;
2011;SDS011;1009;51.436;6.972;2023-07-13T11:48:41;2.53;;;1.60;;
2011;SDS011;1009;51.436;6.972;2023-07-13T11:51:15;3.70;;;1.80;;
2011;SDS011;1009;51.436;6.972;2023-07-13T11:53:48;2.50;;;1.73;;
2011;SDS011;1009;51.436;6.972;2023-07-13T11:56:19;5.50;;;2.10;;
2011;SDS011;1009;51.436;6.972;2023-07-13T11:58:48;2.20;;;1.70;;
2011;SDS011;1009;51.436;6.972;2023-07-13T12:01:20;3.23;;;1.80;;
2011;SDS011;1009;51.436;6.972;2023-07-13T12:03:49;2.03;;;1.50;;
2011;SDS011;1009;51.436;6.972;2023-07-13T12:06:21;4.90;;;1.80;;
2011;SDS011;1009;51.436;6.972;2023-07-13T12:08:55;3.33;;;1.53;;
2011;SDS011;1009;51.436;6.972;2023-07-13T12:11:23;2.33;;;1.60;;
2011;SDS011;1009;51.436;6.972;2023-07-13T12:13:50;3.43;;;1.67;;
2011;SDS011;1009;51.436;6.972;2023-07-13T12:16:17;2.30;;;1.83;;
2011;SDS011;1009;51.436;6.972;2023-07-13T12:18:51;2.40;;;1.40;;
2011;SDS011;1009;51.436;6.972;2023-07-13T12:21:19;2.70;;;1.67;;
2011;SDS011;1009;51.436;6.972;2023-07-13T12:23:48;5.17;;;1.90;;
2011;SDS011;1009;51.436;6.972;2023-07-13T12:26:17;2.97;;;1.37;;
2011;SDS011;1009;51.436;6.972;2023-07-13T12:28:45;3.30;;;1.40;;
2011;SDS011;1009;51.436;6.972;2023-07-13T12:34:09;3.17;;;1.70;;
2011;SDS011;1009;51.436;6.972;2023-07-13T12:36:38;2.83;;;1.47;;
2011;SDS011;1009;51.436;6.972;2023-07-13T12:39:12;2.80;;;1.93;;
2011;SDS011;1009;51.436;6.972;2023-07-13T12:41:42;3.40;;;1.37;;
2011;SDS011;1009;51.436;6.972;2023-07-13T12:44:11;3.60;;;1.53;;
2011;SDS011;1009;51.436;6.972;2023-07-13T12:46:39;2.00;;;1.50;;
2011;SDS011;1009;51.436;6.972;2023-07-13T12:49:06;1.70;;;1.40;;
2011;SDS011;1009;51.436;6.972;2023-07-13T12:51:33;3.40;;;1.50;;
2011;SDS011;1009;51.436;6.972;2023-07-13T12:54:05;2.60;;;1.77;;
2011;SDS011;1009;51.436;6.972;2023-07-13T12:56:37;4.60;;;1.67;;
2011;SDS011;1009;51.436;6.972;2023-07-13T12:59:05;8.40;;;1.80;;
2011;SDS011;1009;51.436;6.972;2023-07-13T13:01:34;3.13;;;1.63;;
2011;SDS011;1009;51.436;6.972;2023-07-13T13:04:02;3.10;;;1.47;;
2011;SDS011;1009;51.436;6.972;2023-07-13T13:06:31;4.73;;;1.87;;
2011;SDS011;1009;51.436;6.972;2023-07-13T13:09:01;2.07;;;1.13;;
2011;SDS011;1009;51.436;6.972;2023-07-13T13:11:29;3.57;;;1.37;;
2011;SDS011;1009;51.436;6.972;2023-07-13T13:13:57;4.73;;;1.70;;
2011;SDS011;1009;51.436;6.972;2023-07-13T13:16:29;2.80;;;1.70;;
2011;SDS011;1009;51.436;6.972;2023-07-13T13:18:59;1.93;;;1.60;;
2011;SDS011;1009;51.436;6.972;2023-07-13T13:21:31;2.67;;;1.70;;
2011;SDS011;1009;51.436;6.972;2023-07-13T13:23:58;2.07;;;1.87;;
2011;SDS011;1009;51.436;6.972;2023-07-13T13:26:25;3.93;;;1.90;;
2011;SDS011;1009;51.436;6.972;2023-07-13T13:28:52;1.70;;;1.40;;
2011;SDS011;1009;51.436;6.972;2023-07-13T13:31:19;2.87;;;1.40;;
2011;SDS011;1009;51.436;6.972;2023-07-13T13:33:47;2.50;;;1.23;;
2011;SDS011;1009;51.436;6.972;2023-07-13T13:36:14;1.83;;;1.13;;
2011;SDS011;1009;51.436;6.972;2023-07-13T13:38:42;5.43;;;1.57;;
2011;SDS011;1009;51.436;6.972;2023-07-13T13:41:09;3.93;;;2.50;;
2011;SDS011;1009;51.436;6.972;2023-07-13T13:43:38;2.17;;;1.43;;
2011;SDS011;1009;51.436;6.972;2023-07-13T13:46:11;2.50;;;1.40;;
2011;SDS011;1009;51.436;6.972;2023-07-13T13:48:41;1.77;;;1.20;;
2011;SDS011;1009;51.436;6.972;2023-07-13T13:51:13;2.97;;;1.77;;
2011;SDS011;1009;51.436;6.972;2023-07-13T13:53:43;4.57;;;1.67;;
2011;SDS011;1009;51.436;6.972;2023-07-13T13:56:10;1.93;;;1.70;;
2011;SDS011;1009;51.436;6.972;2023-07-13T13:58:37;2.40;;;1.70;;
2011;SDS011;1009;51.436;6.972;2023-07-13T14:01:04;3.37;;;1.93;;
2011;SDS011;1009;51.436;6.972;2023-07-13T14:03:33;2.93;;;2.00;;
2011;SDS011;1009;51.436;6.972;2023-07-13T14:06:00;2.50;;;2.07;;
2011;SDS011;1009;51.436;6.972;2023-07-13T14:08:28;1.77;;;1.60;;
2011;SDS011;1009;51.436;6.972;2023-07-13T14:10:56;5.17;;;1.67;;
2011;SDS011;1009;51.436;6.972;2023-07-13T14:13:25;2.23;;;1.53;;
2011;SDS011;1009;51.436;6.972;2023-07-13T14:15:54;2.60;;;1.73;;
2011;SDS011;1009;51.436;6.972;2023-07-13T14:18:21;2.67;;;2.10;;
2011;SDS011;1009;51.436;6.972;2023-07-13T14:20:49;4.00;;;2.40;;
2011;SDS011;1009;51.436;6.972;2023-07-13T14:23:17;5.60;;;2.57;;
2011;SDS011;1009;51.436;6.972;2023-07-13T14:25:45;2.87;;;2.57;;
2011;SDS011;1009;51.436;6.972;2023-07-13T14:28:18;2.90;;;2.47;;
2011;SDS011;1009;51.436;6.972;2023-07-13T14:30:48;3.30;;;2.90;;
2011;SDS011;1009;51.436;6.972;2023-07-13T14:33:16;8.60;;;2.80;;
2011;SDS011;1009;51.436;6.972;2023-07-13T14:35:43;5.57;;;2.57;;
2011;SDS011;1009;51.436;6.972;2023-07-13T14:38:11;4.27;;;2.60;;
2011;SDS011;1009;51.436;6.972;2023-07-13T14:40:41;3.23;;;2.93;;
2011;SDS011;1009;51.436;6.972;2023-07-13T14:43:14;5.30;;;2.97;;
2011;SDS011;1009;51.436;6.972;2023-07-13T14:45:42;4.37;;;2.60;;
2011;SDS011;1009;51.436;6.972;2023-07-13T14:48:14;4.63;;;3.17;;
2011;SDS011;1009;51.436;6.972;2023-07-13T14:50:44;4.07;;;3.20;;
2011;SDS011;1009;51.436;6.972;2023-07-13T14:53:12;4.27;;;2.77;;
2011;SDS011;1009;51.436;6.972;2023-07-13T14:55:39;3.93;;;2.90;;
2011;SDS011;1009;51.436;6.972;2023-07-13T14:58:07;3.63;;;2.93;;
2011;SDS011;1009;51.436;6.972;2023-07-13T15:00:36;4.00;;;2.70;;
2011;SDS011;1009;51.436;6.972;2023-07-13T15:03:03;4.47;;;2.80;;
2011;SDS011;1009;51.436;6.972;2023-07-13T15:05:31;3.27;;;2.97;;
2011;SDS011;1009;51.436;6.972;2023-07-13T15:07:59;3.77;;;2.80;;
2011;SDS011;1009;51.436;6.972;2023-07-13T15:10:29;3.23;;;2.57;;
2011;SDS011;1009;51.436;6.972;2023-07-13T15:12:58;3.77;;;2.60;;
2011;SDS011;1009;51.436;6.972;2023-07-13T15:15:28;5.70;;;2.87;;
2011;SDS011;1009;51.436;6.972;2023-07-13T15:17:57;3.80;;;2.60;;
2011;SDS011;1009;51.436;6.972;2023-07-13T15:20:28;2.83;;;2.57;;
2011;SDS011;1009;51.436;6.972;2023-07-13T15:22:56;4.30;;;3.00;;
2011;SDS011;1009;51.436;6.972;2023-07-13T15:25:24;3.10;;;2.60;;
2011;SDS011;1009;51.436;6.972;2023-07-13T15:27:52;2.77;;;2.13;;
2011;SDS011;1009;51.436;6.972;2023-07-13T15:30:19;3.07;;;2.77;;
2011;SDS011;1009;51.436;6.972;2023-07-13T15:32:46;3.70;;;3.10;;
2011;SDS011;1009;51.436;6.972;2023-07-13T15:35:15;3.43;;;3.00;;